Kezdőlap
METAR-TAF:

METAR-TAF

Repülőterek :

Umiujaq, Québec, Kanada

földrajzi szélesség: 56-32N, földrajzi hosszúság: 076-31W, magasság: 71 m

Jelenlegi meteorológiai megfigyelések

A jelentés 12 órával és 9 perccel ezelõtt készült, 19:00 UTC
Dél-délnyugati szél 10 kt
Hőmérséklet 7°C
Páratartalom 70%
Légköri nyomás 1009 hPa
Látótávolság: 24.1 km
Kevés felhő 4600 lábon
Szórványos felhőzet 7100 lábon
Szakadozott felhőzet 8400 lábon

METAR: CYMU 251900Z 21010KT 15SM FEW046 SCT071 BKN084 07/02 A2979 RMK SC2AC1AC2 LAST STFD OBS/NEXT 261200UTC SLP094

Idő: 03:09 (07:09 UTC)


TAF: hiányzik

Meteorológiai megfigyelések és előrejelzések több, mint 4000 repülőtéren (METAR és TAF jelentéseket).

A térképen piros és sárga pontok jelzik az elérhető meteorológiai állomásokat.

Mozgassa az egeret a pont fölött, hogy megjelenjen az állomás neve.

Azután kattintson az időjárási megfigyelések és előrejelzések megtekintéséhez.

A térkép megváltoztatása: kattintson a fekete keresztel jelölt zöld gombra ráközelítéshez, a vonallal jelölt zöld gombra távolításhoz, vagy a zöld nyilakra a szomszédos térképek eléréséhez.


METAR-TAF: